Time;durP1;ratioP1;P1;durP2;ratioP2;P2;SDS_P1;SDS_P2;PMS_P1;PMS_P2;Temp;Humidity;BMP_temperature;BMP_pressure;BME280_temperature;BME280_humidity;BME280_pressure;Samples;Min_cycle;Max_cycle;Signal;HPM_P1;HPM_P2
2022/04/10 00:01:06;;;;;;;15.43;3.35;;;4.30;99.90;;;;;;5075352;28;20051;-68
2022/04/10 00:03:32;;;;;;;19.63;3.22;;;4.20;99.90;;;;;;5068052;28;20413;-68
2022/04/10 00:05:58;;;;;;;17.70;3.40;;;4.20;99.90;;;;;;5066685;28;20048;-68
2022/04/10 00:08:25;;;;;;;13.70;3.92;;;4.10;99.90;;;;;;5068197;28;20052;-67
2022/04/10 00:10:57;;;;;;;14.20;2.70;;;4.10;99.90;;;;;;5067991;28;20058;-67
2022/04/10 00:13:22;;;;;;;22.70;3.70;;;4.10;99.90;;;;;;5050309;28;20048;-67
2022/04/10 00:15:48;;;;;;;24.63;4.00;;;4.10;99.90;;;;;;5068317;28;20193;-68
2022/04/10 00:18:14;;;;;;;11.70;2.78;;;4.00;99.90;;;;;;5088539;28;20125;-67
2022/04/10 00:20:40;;;;;;;20.67;3.38;;;4.00;99.90;;;;;;5054487;28;20158;-67
2022/04/10 00:23:06;;;;;;;18.88;3.85;;;4.00;99.90;;;;;;5070929;28;20122;-67
2022/04/10 00:25:32;;;;;;;27.85;3.90;;;3.90;99.90;;;;;;5071290;28;20587;-67
2022/04/10 00:27:58;;;;;;;24.20;4.15;;;4.00;99.90;;;;;;5070986;28;20039;-68
2022/04/10 00:30:24;;;;;;;20.20;3.47;;;3.90;99.90;;;;;;5070822;28;20040;-67
2022/04/10 00:32:50;;;;;;;20.75;3.85;;;3.90;99.90;;;;;;5105456;28;20040;-68
2022/04/10 00:35:16;;;;;;;20.73;3.80;;;4.00;99.90;;;;;;5073484;28;20051;-67
2022/04/10 00:37:42;;;;;;;24.10;4.35;;;4.00;99.90;;;;;;5074942;28;20043;-67
2022/04/10 00:40:09;;;;;;;25.27;3.00;;;4.10;99.90;;;;;;5090350;28;20046;-67
2022/04/10 00:42:37;;;;;;;23.90;4.47;;;4.00;99.90;;;;;;5089473;28;20056;-67
2022/04/10 00:45:05;;;;;;;27.48;4.40;;;4.10;99.90;;;;;;5089889;28;20039;-68
2022/04/10 00:47:31;;;;;;;17.95;3.80;;;4.00;99.90;;;;;;5091141;28;20063;-67
2022/04/10 00:49:58;;;;;;;18.63;3.55;;;4.00;99.90;;;;;;5074474;28;20396;-68
2022/04/10 00:52:26;;;;;;;20.27;3.60;;;3.90;99.90;;;;;;5090239;28;20082;-68
2022/04/10 00:54:53;;;;;;;16.45;2.10;;;3.90;99.90;;;;;;5086591;28;20655;-68
2022/04/10 00:57:20;;;;;;;28.20;4.57;;;3.80;99.90;;;;;;5069359;28;20048;-68
2022/04/10 00:59:46;;;;;;;31.73;5.03;;;3.70;99.90;;;;;;5070891;28;20070;-68
2022/04/10 01:02:12;;;;;;;27.67;4.72;;;3.70;99.90;;;;;;5061298;28;20569;-67
2022/04/10 01:04:39;;;;;;;25.58;4.07;;;3.60;99.90;;;;;;5063601;28;20044;-68
2022/04/10 01:07:05;;;;;;;27.38;4.80;;;3.60;99.90;;;;;;5073510;28;20396;-67
2022/04/10 01:09:32;;;;;;;26.08;3.63;;;3.60;99.90;;;;;;5088537;28;20047;-67
2022/04/10 01:11:59;;;;;;;25.67;4.57;;;3.60;99.90;;;;;;5074546;28;20078;-67
2022/04/10 01:14:25;;;;;;;23.95;3.95;;;3.60;99.90;;;;;;5085333;28;20044;-68
2022/04/10 01:16:51;;;;;;;20.83;4.05;;;3.60;99.90;;;;;;5071063;28;20498;-67
2022/04/10 01:19:18;;;;;;;17.55;3.60;;;3.60;99.90;;;;;;5087010;28;20099;-68
2022/04/10 01:21:46;;;;;;;26.48;3.42;;;3.50;99.90;;;;;;5069864;28;20490;-68
2022/04/10 01:24:13;;;;;;;29.48;3.75;;;3.60;99.90;;;;;;5069302;28;20123;-67
2022/04/10 01:26:40;;;;;;;21.15;3.80;;;3.60;99.90;;;;;;5080378;28;20100;-67
2022/04/10 01:29:11;;;;;;;27.52;4.28;;;3.70;99.90;;;;;;5090811;28;20043;-68
2022/04/10 01:31:38;;;;;;;30.13;4.15;;;3.70;99.90;;;;;;5085138;28;20060;-68
2022/04/10 01:34:06;;;;;;;16.67;2.28;;;3.70;99.90;;;;;;5070192;28;20052;-68
2022/04/10 01:36:35;;;;;;;26.38;3.70;;;3.80;99.90;;;;;;5084135;28;20127;-67
2022/04/10 01:39:02;;;;;;;26.88;2.97;;;3.80;99.90;;;;;;5090581;28;20051;-67
2022/04/10 01:41:30;;;;;;;18.58;2.33;;;3.80;99.90;;;;;;5089303;28;20079;-67
2022/04/10 01:43:58;;;;;;;16.27;2.80;;;3.70;99.90;;;;;;5089618;28;20233;-67
2022/04/10 01:46:28;;;;;;;27.45;3.97;;;3.70;99.90;;;;;;5088858;28;20090;-68
2022/04/10 01:48:54;;;;;;;36.17;4.55;;;3.70;99.90;;;;;;5088025;28;20047;-68
2022/04/10 01:51:20;;;;;;;21.52;4.03;;;3.60;99.90;;;;;;5090282;28;20054;-67
2022/04/10 01:53:46;;;;;;;26.40;4.63;;;3.60;99.90;;;;;;5087733;28;20062;-67
2022/04/10 01:56:12;;;;;;;24.13;3.92;;;3.60;99.90;;;;;;5086067;28;20493;-68
2022/04/10 01:58:41;;;;;;;28.88;3.65;;;3.50;99.90;;;;;;5051405;28;20397;-67
2022/04/10 02:01:09;;;;;;;33.78;5.10;;;3.50;99.90;;;;;;5055922;28;20043;-68
2022/04/10 02:03:35;;;;;;;28.38;4.10;;;3.50;99.90;;;;;;5072787;28;20036;-67
2022/04/10 02:06:02;;;;;;;25.83;4.20;;;3.50;99.90;;;;;;5088484;28;20474;-68
2022/04/10 02:08:29;;;;;;;20.27;4.47;;;3.60;99.90;;;;;;5071591;28;20128;-68
2022/04/10 02:10:55;;;;;;;27.23;5.20;;;3.50;99.90;;;;;;5067682;28;20043;-68
2022/04/10 02:13:22;;;;;;;34.50;5.22;;;3.60;99.90;;;;;;5087884;28;20401;-68
2022/04/10 02:15:48;;;;;;;33.45;5.07;;;3.60;99.90;;;;;;5067596;28;20121;-67
2022/04/10 02:18:14;;;;;;;26.98;4.03;;;3.70;99.90;;;;;;5070449;28;20436;-67
2022/04/10 02:20:40;;;;;;;24.35;4.32;;;3.70;99.90;;;;;;5052234;28;20093;-67
2022/04/10 02:23:06;;;;;;;35.38;4.78;;;3.70;99.90;;;;;;5068836;28;20048;-68
2022/04/10 02:25:32;;;;;;;18.80;3.75;;;3.70;99.90;;;;;;5069272;28;20048;-67
2022/04/10 02:27:57;;;;;;;32.63;5.20;;;3.70;99.90;;;;;;5051790;28;20055;-67
2022/04/10 02:30:23;;;;;;;27.38;4.38;;;3.70;99.90;;;;;;5069845;28;20393;-68
2022/04/10 02:32:49;;;;;;;21.88;4.00;;;3.80;99.90;;;;;;5084479;28;20043;-68
2022/04/10 02:35:15;;;;;;;32.65;5.32;;;3.80;99.90;;;;;;5089157;28;20493;-68
2022/04/10 02:37:45;;;;;;;21.63;3.33;;;3.80;99.90;;;;;;5088283;28;20067;-68
2022/04/10 02:40:14;;;;;;;30.98;4.60;;;3.80;99.90;;;;;;5084023;28;20056;-68
2022/04/10 02:42:40;;;;;;;21.73;4.68;;;3.70;99.90;;;;;;5052800;28;20131;-67
2022/04/10 02:45:07;;;;;;;17.40;3.20;;;3.60;99.90;;;;;;5067920;28;20040;-67
2022/04/10 02:47:34;;;;;;;18.88;3.53;;;3.80;99.90;;;;;;5069493;28;20043;-67
2022/04/10 02:50:00;;;;;;;11.35;2.08;;;3.80;99.90;;;;;;5061731;28;20051;-68
2022/04/10 02:52:26;;;;;;;13.63;2.10;;;3.60;99.90;;;;;;5069463;28;20070;-67
2022/04/10 02:54:53;;;;;;;19.77;2.22;;;3.40;99.90;;;;;;5066787;28;20581;-67
2022/04/10 02:57:19;;;;;;;19.50;2.97;;;3.30;99.90;;;;;;5087199;28;20059;-67
2022/04/10 02:59:44;;;;;;;18.48;2.40;;;3.30;99.90;;;;;;5067691;28;20040;-67
2022/04/10 03:02:10;;;;;;;19.08;2.97;;;3.30;99.90;;;;;;5079803;28;20496;-67
2022/04/10 03:04:36;;;;;;;22.65;2.65;;;3.40;99.90;;;;;;5088850;28;20079;-67
2022/04/10 03:07:02;;;;;;;22.95;3.22;;;3.30;99.90;;;;;;5070063;28;20047;-68
2022/04/10 03:09:28;;;;;;;21.52;2.63;;;3.30;99.90;;;;;;5105903;28;20125;-67
2022/04/10 03:11:54;;;;;;;23.83;3.25;;;3.20;99.90;;;;;;5105626;28;20040;-67
2022/04/10 03:14:20;;;;;;;24.95;3.28;;;3.20;99.90;;;;;;5088992;28;20127;-67
2022/04/10 03:16:46;;;;;;;27.15;4.60;;;3.30;99.90;;;;;;5054379;28;20178;-68
2022/04/10 03:19:12;;;;;;;23.10;3.58;;;3.30;99.90;;;;;;5071992;28;20485;-67
2022/04/10 03:21:37;;;;;;;31.10;5.20;;;3.50;99.90;;;;;;5085038;28;20051;-67
2022/04/10 03:24:03;;;;;;;25.52;7.03;;;3.50;99.90;;;;;;5066993;28;20044;-67
2022/04/10 03:26:30;;;;;;;19.05;3.55;;;3.60;99.90;;;;;;5069035;28;20052;-67
2022/04/10 03:28:56;;;;;;;17.77;3.03;;;3.50;99.90;;;;;;5067130;28;20115;-67
2022/04/10 03:31:23;;;;;;;15.00;3.20;;;3.40;99.90;;;;;;5075105;28;20051;-67
2022/04/10 03:33:49;;;;;;;13.80;2.45;;;3.40;99.90;;;;;;5066493;28;20036;-67
2022/04/10 03:36:15;;;;;;;10.77;1.70;;;3.30;99.90;;;;;;5086674;28;20560;-67
2022/04/10 03:38:42;;;;;;;14.32;2.60;;;3.30;99.90;;;;;;5068267;28;20130;-68
2022/04/10 03:41:08;;;;;;;13.23;1.73;;;3.20;99.90;;;;;;5069681;28;20473;-67
2022/04/10 03:43:35;;;;;;;18.25;2.60;;;3.30;99.90;;;;;;5088618;28;20059;-67
2022/04/10 03:46:01;;;;;;;2.70;1.13;;;3.30;99.90;;;;;;5086665;28;20090;-67
2022/04/10 03:48:27;;;;;;;14.65;2.97;;;3.20;99.90;;;;;;5088692;28;20043;-68
2022/04/10 03:50:54;;;;;;;15.52;2.63;;;3.20;99.90;;;;;;5087274;28;20089;-67
2022/04/10 03:53:20;;;;;;;13.60;3.05;;;3.20;99.90;;;;;;5088088;28;20055;-67
2022/04/10 03:55:46;;;;;;;19.20;2.70;;;3.30;99.90;;;;;;5054631;28;20052;-67
2022/04/10 03:58:11;;;;;;;14.48;3.80;;;3.40;99.90;;;;;;5071133;28;20087;-68
2022/04/10 04:00:37;;;;;;;13.85;2.42;;;3.40;99.90;;;;;;5072600;28;20044;-67
2022/04/10 04:03:04;;;;;;;21.85;2.50;;;3.40;99.90;;;;;;5088097;28;20054;-68
2022/04/10 04:05:29;;;;;;;9.23;1.75;;;3.40;99.90;;;;;;5075525;28;20116;-67
2022/04/10 04:07:56;;;;;;;12.63;1.55;;;3.40;99.90;;;;;;5090492;28;20047;-67
2022/04/10 04:10:22;;;;;;;12.10;2.15;;;3.40;99.90;;;;;;5075918;28;20478;-68
2022/04/10 04:12:48;;;;;;;14.82;1.75;;;3.40;99.90;;;;;;5085776;28;20050;-67
2022/04/10 04:15:13;;;;;;;15.23;2.33;;;3.30;99.90;;;;;;5088789;28;20052;-67
2022/04/10 04:17:39;;;;;;;16.92;2.63;;;3.30;99.90;;;;;;5071561;28;20059;-67
2022/04/10 04:20:06;;;;;;;14.65;2.50;;;3.30;99.90;;;;;;5070358;28;20472;-68
2022/04/10 04:22:33;;;;;;;13.93;2.97;;;3.30;99.90;;;;;;5090150;28;20048;-67
2022/04/10 04:25:00;;;;;;;12.43;2.22;;;3.40;99.90;;;;;;5070964;28;20131;-67
2022/04/10 04:27:26;;;;;;;17.13;2.35;;;3.40;99.90;;;;;;5054976;28;20077;-68
2022/04/10 04:29:52;;;;;;;10.73;2.90;;;3.50;99.90;;;;;;5020049;28;20052;-67
2022/04/10 04:32:18;;;;;;;20.13;2.92;;;3.40;99.90;;;;;;5081282;28;20044;-66
2022/04/10 04:34:43;;;;;;;15.57;3.15;;;3.40;99.90;;;;;;5071296;28;20078;-66
2022/04/10 04:37:09;;;;;;;13.73;2.95;;;3.20;99.90;;;;;;5070315;28;20032;-66
2022/04/10 04:39:36;;;;;;;11.27;2.53;;;3.10;99.90;;;;;;5071841;28;20036;-66
2022/04/10 04:42:02;;;;;;;15.00;1.70;;;2.90;99.90;;;;;;5069820;28;20043;-66
2022/04/10 04:44:30;;;;;;;9.95;2.53;;;2.80;99.90;;;;;;5089237;28;20456;-66
2022/04/10 04:46:57;;;;;;;5.38;1.30;;;2.80;99.90;;;;;;5087630;28;20044;-66
2022/04/10 04:49:24;;;;;;;9.95;1.90;;;2.70;99.90;;;;;;5090908;28;20082;-66
2022/04/10 04:51:49;;;;;;;9.35;1.27;;;2.70;99.90;;;;;;5072882;28;20134;-66
2022/04/10 04:54:16;;;;;;;5.03;0.82;;;2.60;99.90;;;;;;5066446;28;20140;-66
2022/04/10 04:56:41;;;;;;;5.80;1.30;;;2.70;99.90;;;;;;5067223;28;20045;-67
2022/04/10 04:59:07;;;;;;;9.23;1.25;;;2.70;99.90;;;;;;5049525;28;20063;-66
2022/04/10 05:01:33;;;;;;;10.10;1.65;;;2.70;99.90;;;;;;5073856;28;20044;-67
2022/04/10 05:03:59;;;;;;;12.25;1.70;;;2.80;99.90;;;;;;5075551;28;20064;-67
2022/04/10 05:06:25;;;;;;;9.02;1.50;;;2.80;99.90;;;;;;5067745;28;20055;-67
2022/04/10 05:08:51;;;;;;;15.00;1.50;;;2.80;99.90;;;;;;5066229;28;20143;-67
2022/04/10 05:11:17;;;;;;;6.80;1.10;;;2.80;99.90;;;;;;5067096;28;20045;-66
2022/04/10 05:13:44;;;;;;;11.13;1.70;;;2.90;99.90;;;;;;5067420;28;20040;-67
2022/04/10 05:16:10;;;;;;;5.35;0.95;;;2.90;99.90;;;;;;5066560;28;20143;-66
2022/04/10 05:18:36;;;;;;;9.55;1.98;;;3.00;99.90;;;;;;5084547;28;20045;-67
2022/04/10 05:21:03;;;;;;;8.88;1.67;;;3.00;99.90;;;;;;5065539;28;20052;-67
2022/04/10 05:23:29;;;;;;;13.48;2.22;;;3.10;99.90;;;;;;5067425;28;20429;-66
2022/04/10 05:25:55;;;;;;;7.97;1.90;;;3.10;99.90;;;;;;5065444;28;20106;-66
2022/04/10 05:28:22;;;;;;;10.52;1.10;;;3.10;99.90;;;;;;5068065;28;20360;-66
2022/04/10 05:30:48;;;;;;;13.05;2.30;;;3.00;99.90;;;;;;5066184;28;20055;-67
2022/04/10 05:33:14;;;;;;;8.52;2.13;;;3.10;99.90;;;;;;5049846;28;20048;-66
2022/04/10 05:35:41;;;;;;;11.50;2.17;;;3.10;99.90;;;;;;5066863;28;20119;-66
2022/04/10 05:38:08;;;;;;;19.73;3.13;;;3.10;99.90;;;;;;5065431;28;20060;-66
2022/04/10 05:40:34;;;;;;;19.75;2.80;;;3.20;99.90;;;;;;5067455;28;20498;-66
2022/04/10 05:43:00;;;;;;;11.30;2.00;;;3.10;99.90;;;;;;5066106;28;20040;-67
2022/04/10 05:45:26;;;;;;;14.35;2.45;;;3.10;99.90;;;;;;5069118;28;20048;-66
2022/04/10 05:47:52;;;;;;;20.75;4.10;;;3.20;99.90;;;;;;5065097;28;20169;-66
2022/04/10 05:50:18;;;;;;;8.82;1.38;;;3.30;99.90;;;;;;5066477;28;20158;-66
2022/04/10 05:52:46;;;;;;;12.05;1.88;;;3.50;99.90;;;;;;5048860;28;20057;-66
2022/04/10 05:55:14;;;;;;;12.75;2.33;;;3.50;99.90;;;;;;5098290;28;20052;-67
2022/04/10 05:57:41;;;;;;;18.48;2.42;;;3.70;99.90;;;;;;5085239;28;20063;-66
2022/04/10 06:00:10;;;;;;;12.18;2.50;;;3.70;99.90;;;;;;5084733;28;20521;-67
2022/04/10 06:02:37;;;;;;;14.10;1.98;;;3.80;99.90;;;;;;5083736;28;20479;-66
2022/04/10 06:05:03;;;;;;;9.82;2.47;;;3.90;99.90;;;;;;5064547;28;20478;-67
2022/04/10 06:07:29;;;;;;;19.85;2.85;;;4.00;99.90;;;;;;5067626;28;20055;-67
2022/04/10 06:09:55;;;;;;;9.10;2.38;;;4.10;99.90;;;;;;5065428;28;20040;-66
2022/04/10 06:12:21;;;;;;;17.75;2.85;;;4.10;99.90;;;;;;5065371;28;20300;-67
2022/04/10 06:14:46;;;;;;;8.82;1.83;;;4.10;99.90;;;;;;5066501;28;20376;-67
2022/04/10 06:17:12;;;;;;;11.55;2.33;;;4.20;99.90;;;;;;5064183;28;20051;-67
2022/04/10 06:19:38;;;;;;;9.88;3.45;;;4.20;99.90;;;;;;5049599;28;20051;-65
2022/04/10 06:22:05;;;;;;;14.65;2.58;;;4.20;99.90;;;;;;5063890;28;20091;-67
2022/04/10 06:24:31;;;;;;;11.57;2.80;;;4.20;99.90;;;;;;5067629;28;20036;-66
2022/04/10 06:26:56;;;;;;;19.77;3.30;;;4.30;99.90;;;;;;5064765;28;20041;-66
2022/04/10 06:29:22;;;;;;;17.08;2.85;;;4.90;99.90;;;;;;5065976;28;20056;-66
2022/04/10 06:31:49;;;;;;;14.48;3.92;;;5.20;99.90;;;;;;5074416;28;20558;-66
2022/04/10 06:34:15;;;;;;;16.17;3.45;;;5.20;99.90;;;;;;5084647;28;20080;-66
2022/04/10 06:36:41;;;;;;;10.13;2.63;;;5.20;99.90;;;;;;5054369;28;20084;-66
2022/04/10 06:39:07;;;;;;;11.40;2.05;;;5.00;99.90;;;;;;5059666;28;20059;-66
2022/04/10 06:41:33;;;;;;;11.25;3.17;;;4.90;99.90;;;;;;5087778;28;20402;-66
2022/04/10 06:43:59;;;;;;;5.00;1.55;;;4.90;99.90;;;;;;5081062;28;20117;-66
2022/04/10 06:46:26;;;;;;;11.77;2.08;;;4.90;99.90;;;;;;5065764;28;20107;-66
2022/04/10 06:48:52;;;;;;;8.55;2.28;;;4.90;99.90;;;;;;5081373;28;20053;-66
2022/04/10 06:51:18;;;;;;;14.38;2.33;;;4.90;99.90;;;;;;5065038;28;20486;-67
2022/04/10 06:53:44;;;;;;;11.10;2.40;;;4.90;99.90;;;;;;5065462;28;20048;-66
2022/04/10 06:56:10;;;;;;;11.73;1.80;;;4.80;99.90;;;;;;5064149;28;20575;-67
2022/04/10 06:58:36;;;;;;;10.05;1.90;;;4.80;99.90;;;;;;5049200;28;20404;-66
2022/04/10 07:01:02;;;;;;;8.05;2.33;;;4.80;99.90;;;;;;5064210;28;20506;-66
2022/04/10 07:03:29;;;;;;;10.20;1.67;;;4.90;99.90;;;;;;5085362;28;20036;-67
2022/04/10 07:05:54;;;;;;;8.95;1.85;;;5.20;99.90;;;;;;5063994;28;20040;-67
2022/04/10 07:08:20;;;;;;;17.70;2.70;;;5.40;99.90;;;;;;5065105;28;20497;-66
2022/04/10 07:10:46;;;;;;;11.45;2.67;;;5.40;99.90;;;;;;5056767;28;20085;-66
2022/04/10 07:13:20;;;;;;;12.10;3.35;;;5.70;99.90;;;;;;5085625;28;20044;-66
2022/04/10 07:15:47;;;;;;;14.05;3.42;;;5.80;99.90;;;;;;5081971;28;20494;-67
2022/04/10 07:18:13;;;;;;;8.77;2.50;;;6.00;99.90;;;;;;5063379;28;20036;-66
2022/04/10 07:20:39;;;;;;;20.98;3.00;;;6.20;99.90;;;;;;5069970;28;20040;-67
2022/04/10 07:25:50;;;;;;;13.40;2.13;;;6.60;99.90;;;;;;5088914;28;20087;-66
2022/04/10 07:28:18;;;;;;;11.88;2.10;;;6.70;99.90;;;;;;5088999;28;20113;-66
2022/04/10 07:30:44;;;;;;;12.55;2.53;;;6.60;99.90;;;;;;5087381;28;20117;-66
2022/04/10 07:33:10;;;;;;;11.60;2.20;;;6.90;99.90;;;;;;5051982;28;20083;-66
2022/04/10 07:35:36;;;;;;;9.65;1.70;;;7.00;99.90;;;;;;5067697;28;20105;-66
2022/04/10 07:38:03;;;;;;;14.63;2.55;;;6.90;99.90;;;;;;5071000;28;20059;-67
2022/04/10 07:40:29;;;;;;;12.18;2.55;;;6.80;99.90;;;;;;5072556;28;20109;-67
2022/04/10 07:42:56;;;;;;;11.48;2.08;;;6.70;99.90;;;;;;5067935;28;20044;-66
2022/04/10 07:48:06;;;;;;;12.30;2.75;;;6.40;99.90;;;;;;5085022;28;20102;-67
2022/04/10 07:50:32;;;;;;;10.55;2.58;;;6.60;99.90;;;;;;5089834;28;20040;-67
2022/04/10 07:52:58;;;;;;;14.70;2.38;;;7.00;99.90;;;;;;5062042;28;20059;-66
2022/04/10 07:55:26;;;;;;;9.57;2.05;;;7.00;99.90;;;;;;5068147;28;20048;-66
2022/04/10 07:57:52;;;;;;;10.82;2.40;;;6.80;99.90;;;;;;5067244;28;20636;-66
2022/04/10 08:00:18;;;;;;;12.80;2.67;;;6.90;99.90;;;;;;5068391;28;20119;-67
2022/04/10 08:02:52;;;;;;;12.25;2.85;;;6.90;99.90;;;;;;5081062;28;20036;-66
2022/04/10 08:05:19;;;;;;;12.00;2.10;;;6.80;99.90;;;;;;5068685;28;20060;-67
2022/04/10 08:07:46;;;;;;;9.70;1.73;;;7.00;99.90;;;;;;5068867;28;20040;-66
2022/04/10 08:10:14;;;;;;;20.58;2.90;;;7.10;99.90;;;;;;5066857;28;20060;-67
2022/04/10 08:12:41;;;;;;;14.35;2.53;;;7.20;99.90;;;;;;5052002;28;20055;-67
2022/04/10 08:15:08;;;;;;;13.05;2.78;;;7.20;99.90;;;;;;5067963;28;20029;-67
2022/04/10 08:17:34;;;;;;;11.05;2.35;;;7.40;99.90;;;;;;5069468;28;20044;-67
2022/04/10 08:20:04;;;;;;;9.02;2.30;;;7.70;99.90;;;;;;5075340;28;20051;-67
2022/04/10 08:22:34;;;;;;;16.15;2.85;;;7.70;99.90;;;;;;5086789;28;20079;-66
2022/04/10 08:25:03;;;;;;;9.20;2.42;;;7.50;99.90;;;;;;5074467;28;20045;-67
2022/04/10 08:27:29;;;;;;;11.77;2.40;;;7.00;99.90;;;;;;5082721;28;20083;-66
2022/04/10 08:29:55;;;;;;;10.43;2.08;;;6.70;99.90;;;;;;5078631;28;20089;-67
2022/04/10 08:32:23;;;;;;;10.32;1.80;;;6.50;99.90;;;;;;5065967;28;20448;-67
2022/04/10 08:34:49;;;;;;;19.98;4.10;;;6.30;99.90;;;;;;5078680;28;20087;-67
2022/04/10 08:37:15;;;;;;;14.52;3.13;;;6.50;99.90;;;;;;5082776;28;20513;-67
2022/04/10 08:39:41;;;;;;;15.70;3.70;;;6.80;99.90;;;;;;5067295;28;20075;-67
2022/04/10 08:42:08;;;;;;;10.35;2.65;;;6.90;99.90;;;;;;5068470;28;20083;-68
2022/04/10 08:44:35;;;;;;;12.73;2.88;;;7.20;99.90;;;;;;5075384;28;20452;-67
2022/04/10 08:47:01;;;;;;;10.35;2.20;;;7.50;99.90;;;;;;5089473;28;20217;-68
2022/04/10 08:49:31;;;;;;;9.77;2.17;;;7.60;99.90;;;;;;5087331;28;20046;-67
2022/04/10 08:51:58;;;;;;;9.95;2.13;;;7.80;99.90;;;;;;5087898;28;20052;-67
2022/04/10 08:54:26;;;;;;;16.40;2.65;;;7.90;99.90;;;;;;5083457;28;20050;-67
2022/04/10 08:56:53;;;;;;;15.73;2.88;;;7.90;99.90;;;;;;5088203;28;20051;-68
2022/04/10 08:59:20;;;;;;;7.90;1.92;;;7.80;99.90;;;;;;5088955;28;20105;-67
2022/04/10 09:01:50;;;;;;;22.83;3.30;;;7.80;99.90;;;;;;5104990;27;20039;-67
2022/04/10 09:04:16;;;;;;;19.38;2.97;;;8.00;99.90;;;;;;5089176;28;20056;-66
2022/04/10 09:07:11;;;;;;;11.93;2.08;;;8.00;99.90;;;;;;5084336;28;20051;-67
2022/04/10 09:09:42;;;;;;;11.90;2.40;;;8.00;99.90;;;;;;5108541;28;20056;-67
2022/04/10 09:12:08;;;;;;;12.82;2.78;;;8.30;99.90;;;;;;5082480;28;20044;-67
2022/04/10 09:14:41;;;;;;;13.57;2.63;;;8.40;99.90;;;;;;5052369;28;20051;-67
2022/04/10 09:17:22;;;;;;;18.83;2.63;;;8.20;99.90;;;;;;5071503;28;20449;-67
2022/04/10 09:19:53;;;;;;;9.65;2.20;;;8.20;99.90;;;;;;5069224;28;20086;-67
2022/04/10 09:22:30;;;;;;;12.38;1.92;;;8.00;98.70;;;;;;5059776;28;20051;-67
2022/04/10 09:25:02;;;;;;;12.45;2.80;;;8.10;99.80;;;;;;5088224;28;20490;-67
2022/04/10 09:27:36;;;;;;;13.73;2.83;;;8.30;97.90;;;;;;5069139;28;20036;-67
2022/04/10 09:30:04;;;;;;;13.90;2.63;;;8.20;99.40;;;;;;5090553;28;20055;-67
2022/04/10 09:32:56;;;;;;;9.73;2.20;;;8.20;94.60;;;;;;5065947;28;20055;-67
2022/04/10 09:35:24;;;;;;;13.60;2.22;;;8.30;96.80;;;;;;5085151;28;20067;-68
2022/04/10 09:37:50;;;;;;;11.48;2.05;;;8.40;95.70;;;;;;5107886;28;20119;-66
2022/04/10 09:40:37;;;;;;;14.50;2.47;;;8.50;94.20;;;;;;5085775;28;20386;-66
2022/04/10 09:43:10;;;;;;;11.10;2.15;;;8.40;94.60;;;;;;5053573;28;20101;-67
2022/04/10 09:45:38;;;;;;;12.65;1.85;;;8.40;96.20;;;;;;5102509;28;20044;-67
2022/04/10 09:48:16;;;;;;;11.48;3.10;;;8.60;97.80;;;;;;5074084;28;20868;-66
2022/04/10 09:50:43;;;;;;;13.77;2.90;;;8.60;99.90;;;;;;5076142;28;20058;-67
2022/04/10 09:53:11;;;;;;;14.85;2.88;;;8.60;97.80;;;;;;5107894;28;20047;-67
2022/04/10 09:55:38;;;;;;;17.13;3.20;;;8.40;97.70;;;;;;5072591;28;20066;-67
2022/04/10 09:58:10;;;;;;;11.20;2.95;;;8.60;99.90;;;;;;5071710;28;20047;-67
2022/04/10 10:00:44;;;;;;;7.55;1.58;;;8.60;95.10;;;;;;5107296;27;20493;-67
2022/04/10 10:03:11;;;;;;;12.15;2.33;;;8.60;93.30;;;;;;5080378;28;20646;-67
2022/04/10 10:05:38;;;;;;;11.43;2.38;;;8.90;99.70;;;;;;5076483;28;20579;-67
2022/04/10 10:08:05;;;;;;;11.25;2.28;;;9.00;95.00;;;;;;5088757;28;20507;-67
2022/04/10 10:10:34;;;;;;;6.50;1.52;;;9.10;99.90;;;;;;5088816;28;20048;-67
2022/04/10 10:13:02;;;;;;;5.82;1.50;;;9.10;97.20;;;;;;5089028;28;20130;-67
2022/04/10 10:15:28;;;;;;;10.23;2.10;;;9.00;96.10;;;;;;5087505;28;20054;-67
2022/04/10 10:17:54;;;;;;;5.82;1.35;;;9.20;99.90;;;;;;5089934;28;20051;-66
2022/04/10 10:20:23;;;;;;;9.07;1.70;;;9.10;95.20;;;;;;5071590;28;20043;-67
2022/04/10 10:22:50;;;;;;;9.68;2.10;;;9.00;99.90;;;;;;5086831;28;20039;-67
2022/04/10 10:25:39;;;;;;;9.43;1.65;;;9.00;97.90;;;;;;5106277;27;20552;-67
2022/04/10 10:28:16;;;;;;;8.52;2.28;;;9.00;95.40;;;;;;5103109;28;20035;-67
2022/04/10 10:31:03;;;;;;;5.47;1.52;;;9.10;95.60;;;;;;5085328;28;20048;-67
2022/04/10 10:33:30;;;;;;;9.40;1.77;;;9.10;92.00;;;;;;5078117;28;20043;-67
2022/04/10 10:35:57;;;;;;;8.68;1.92;;;9.10;92.30;;;;;;5086654;28;20052;-67
2022/04/10 10:38:25;;;;;;;9.10;1.30;;;9.10;92.80;;;;;;5079931;28;20040;-67
2022/04/10 10:41:12;;;;;;;8.73;2.55;;;9.00;97.30;;;;;;5096772;28;20466;-67
2022/04/10 10:43:38;;;;;;;11.00;2.45;;;9.20;96.30;;;;;;5082616;28;20047;-67
2022/04/10 10:46:26;;;;;;;12.13;2.08;;;9.30;97.60;;;;;;5082279;28;20129;-67
2022/04/10 10:49:17;;;;;;;10.10;1.98;;;9.50;95.60;;;;;;5107256;28;20133;-67
2022/04/10 10:51:50;;;;;;;7.30;2.22;;;9.40;94.70;;;;;;5091887;28;20520;-67
2022/04/10 10:54:31;;;;;;;6.07;1.60;;;9.20;92.10;;;;;;5057751;28;20048;-67
2022/04/10 10:56:57;;;;;;;;;;;9.10;90.80;;;;;;5089483;28;20051;-67
2022/04/10 10:59:43;;;;;;;9.20;2.55;;;9.10;93.90;;;;;;5105482;28;20281;-67
2022/04/10 11:02:12;;;;;;;15.40;2.42;;;9.40;92.00;;;;;;5084956;28;20055;-67
2022/04/10 11:04:44;;;;;;;15.32;1.83;;;9.30;95.20;;;;;;5068032;28;20078;-67
2022/04/10 11:07:11;;;;;;;8.93;1.80;;;9.10;94.10;;;;;;5067421;28;20051;-67
2022/04/10 11:09:46;;;;;;;13.60;1.60;;;9.10;95.60;;;;;;5068215;28;20067;-68
2022/04/10 11:12:15;;;;;;;15.73;2.17;;;9.40;98.00;;;;;;5101668;28;20472;-67
2022/04/10 11:14:45;;;;;;;7.22;1.88;;;9.50;97.60;;;;;;5088584;28;20078;-68
2022/04/10 11:17:20;;;;;;;9.52;1.95;;;9.40;92.60;;;;;;5087927;28;20396;-67
2022/04/10 11:19:49;;;;;;;12.43;1.92;;;9.30;95.50;;;;;;5106194;28;20046;-67
2022/04/10 11:22:25;;;;;;;8.45;2.17;;;9.50;91.70;;;;;;5089483;28;20077;-67
2022/04/10 11:24:52;;;;;;;7.93;1.50;;;9.30;89.20;;;;;;5105475;28;20040;-67
2022/04/10 11:27:55;;;;;;;11.40;1.92;;;9.10;94.20;;;;;;5089247;28;20667;-67
2022/04/10 11:30:29;;;;;;;9.65;1.80;;;9.00;96.80;;;;;;5088183;28;20051;-67
2022/04/10 11:32:58;;;;;;;13.75;2.42;;;8.90;95.50;;;;;;5080110;28;20062;-67
2022/04/10 11:35:29;;;;;;;7.93;1.65;;;9.30;99.90;;;;;;5086820;28;20447;-67
2022/04/10 11:37:57;;;;;;;10.68;1.88;;;9.70;90.30;;;;;;5084766;28;20059;-67
2022/04/10 11:40:29;;;;;;;10.38;1.55;;;10.10;88.00;;;;;;5087015;28;20036;-68
2022/04/10 11:42:56;;;;;;;11.65;1.23;;;10.00;74.30;;;;;;5084821;28;20516;-67
2022/04/10 11:45:28;;;;;;;10.02;1.77;;;10.10;92.90;;;;;;5068694;28;20051;-68
2022/04/10 11:47:54;;;;;;;7.05;1.65;;;10.10;95.50;;;;;;5076398;28;20497;-67
2022/04/10 11:50:22;;;;;;;9.70;1.70;;;9.90;93.20;;;;;;5086659;28;20148;-67
2022/04/10 11:53:10;;;;;;;12.73;2.30;;;9.70;92.70;;;;;;5084033;28;20044;-67
2022/04/10 11:55:38;;;;;;;10.45;1.40;;;9.90;95.90;;;;;;5070142;28;20044;-68
2022/04/10 11:58:18;;;;;;;14.85;2.25;;;10.10;93.20;;;;;;5087289;28;20085;-68
2022/04/10 12:00:53;;;;;;;8.45;1.70;;;10.10;79.30;;;;;;5086363;28;20044;-68
2022/04/10 12:03:23;;;;;;;12.48;2.30;;;9.80;83.70;;;;;;5100577;28;20114;-67
2022/04/10 12:05:50;;;;;;;11.05;1.70;;;9.90;98.60;;;;;;5106110;28;20047;-68
2022/04/10 12:08:16;;;;;;;11.38;2.33;;;10.20;84.40;;;;;;5104300;28;20437;-68
2022/04/10 12:10:56;;;;;;;9.63;2.03;;;10.20;91.40;;;;;;5087634;28;20112;-67
2022/04/10 12:13:34;;;;;;;9.05;2.00;;;10.40;90.00;;;;;;5071826;28;20070;-67
2022/04/10 12:16:11;;;;;;;8.68;1.80;;;10.40;90.60;;;;;;5064043;28;20056;-67
2022/04/10 12:18:49;;;;;;;5.13;1.42;;;10.20;87.30;;;;;;5084026;28;20040;-67
2022/04/10 12:21:16;;;;;;;7.63;1.80;;;10.00;95.50;;;;;;5105269;27;20083;-67
2022/04/10 12:23:42;;;;;;;9.32;1.80;;;10.10;90.80;;;;;;5081497;28;20036;-67
2022/04/10 12:26:09;;;;;;;7.40;1.73;;;10.00;74.90;;;;;;5066918;28;20055;-67
2022/04/10 12:28:37;;;;;;;8.18;1.73;;;10.10;90.30;;;;;;5086639;28;20048;-68
2022/04/10 12:31:04;;;;;;;12.52;1.77;;;9.90;90.40;;;;;;5053829;28;20507;-67
2022/04/10 12:33:31;;;;;;;6.97;1.70;;;10.10;77.80;;;;;;5104810;28;20503;-67
2022/04/10 12:35:56;;;;;;;15.65;2.38;;;10.40;80.10;;;;;;5071188;28;20053;-67
2022/04/10 12:38:30;;;;;;;10.30;2.05;;;10.30;95.60;;;;;;5086695;28;20045;-67
2022/04/10 12:41:05;;;;;;;13.57;2.55;;;10.50;98.20;;;;;;5057827;28;20562;-67
2022/04/10 12:43:31;;;;;;;9.65;2.25;;;10.60;86.30;;;;;;5090346;28;20062;-67
2022/04/10 12:46:12;;;;;;;13.73;2.38;;;10.90;97.20;;;;;;5090461;28;20707;-68
2022/04/10 12:48:38;;;;;;;9.32;1.92;;;10.80;94.10;;;;;;5109542;28;20040;-67
2022/04/10 12:51:07;;;;;;;13.00;2.10;;;10.30;94.20;;;;;;5108159;28;20047;-67
2022/04/10 12:53:33;;;;;;;10.20;2.22;;;10.10;95.80;;;;;;5090706;28;20039;-67
2022/04/10 12:55:59;;;;;;;8.48;1.40;;;9.80;96.30;;;;;;5089277;28;20055;-67
2022/04/10 12:58:29;;;;;;;13.20;1.92;;;9.60;93.80;;;;;;5091533;28;20052;-67